Time;durP1;ratioP1;P1;durP2;ratioP2;P2;SDS_P1;SDS_P2;PMS_P1;PMS_P2;Temp;Humidity;BMP_temperature;BMP_pressure;BME280_temperature;BME280_humidity;BME280_pressure;Samples;Min_cycle;Max_cycle;Signal;HPM_P1;HPM_P2
2024/03/05 00:02:06;;;;;;;85.80;36.33;;;;;;;;;;777832;178;919768;-58
2024/03/05 00:04:32;;;;;;;66.27;30.07;;;;;;;;;;783754;177;874615;-59
2024/03/05 00:06:58;;;;;;;86.63;44.20;;;;;;;;;;774226;178;916663;-59
2024/03/05 00:09:24;;;;;;;99.73;44.67;;;;;;;;;;786141;177;919537;-58
2024/03/05 00:11:51;;;;;;;90.53;37.50;;;;;;;;;;783574;177;817131;-58
2024/03/05 00:14:15;;;;;;;103.47;42.53;;;;;;;;;;779921;177;919292;-57
2024/03/05 00:16:41;;;;;;;98.67;43.47;;;;;;;;;;789097;177;816709;-57
2024/03/05 00:19:08;;;;;;;91.83;43.70;;;;;;;;;;777788;176;917417;-57
2024/03/05 00:21:33;;;;;;;86.23;38.30;;;;;;;;;;775345;177;919691;-59
2024/03/05 00:24:00;;;;;;;81.20;36.07;;;;;;;;;;776282;177;914747;-59
2024/03/05 00:26:25;;;;;;;82.67;40.93;;;;;;;;;;776383;176;940859;-59
2024/03/05 00:28:51;;;;;;;96.00;40.90;;;;;;;;;;782240;177;918828;-57
2024/03/05 00:31:16;;;;;;;72.33;37.30;;;;;;;;;;779696;177;922305;-59
2024/03/05 00:33:42;;;;;;;74.00;33.53;;;;;;;;;;783938;179;816820;-57
2024/03/05 00:36:08;;;;;;;83.03;36.20;;;;;;;;;;783002;177;820638;-59
2024/03/05 00:38:34;;;;;;;72.93;35.30;;;;;;;;;;780995;177;852116;-58
2024/03/05 00:41:00;;;;;;;83.03;38.70;;;;;;;;;;781743;177;940340;-59
2024/03/05 00:43:26;;;;;;;73.67;37.83;;;;;;;;;;784078;177;919114;-59
2024/03/05 00:45:51;;;;;;;78.47;38.87;;;;;;;;;;781447;176;919794;-59
2024/03/05 00:48:19;;;;;;;82.95;39.97;;;;;;;;;;782794;177;920766;-58
2024/03/05 00:50:44;;;;;;;71.70;28.97;;;;;;;;;;781062;179;819805;-59
2024/03/05 00:53:10;;;;;;;84.97;38.60;;;;;;;;;;776816;177;882801;-59
2024/03/05 00:55:37;;;;;;;70.07;34.50;;;;;;;;;;773077;177;913799;-58
2024/03/05 00:58:01;;;;;;;67.43;35.20;;;;;;;;;;788432;177;817899;-57
2024/03/05 01:00:27;;;;;;;73.93;35.93;;;;;;;;;;778691;177;921694;-58
2024/03/05 01:02:53;;;;;;;81.43;37.23;;;;;;;;;;779151;176;920096;-59
2024/03/05 01:05:19;;;;;;;68.50;31.03;;;;;;;;;;784449;177;921727;-60
2024/03/05 01:07:45;;;;;;;70.07;38.10;;;;;;;;;;782133;175;908654;-57
2024/03/05 01:10:11;;;;;;;61.37;30.37;;;;;;;;;;783251;175;817942;-58
2024/03/05 01:12:37;;;;;;;66.07;35.37;;;;;;;;;;785226;177;814122;-58
2024/03/05 01:15:03;;;;;;;67.43;34.30;;;;;;;;;;782762;177;818414;-59
2024/03/05 01:17:29;;;;;;;67.27;33.83;;;;;;;;;;779421;177;919635;-57
2024/03/05 01:19:55;;;;;;;64.17;33.20;;;;;;;;;;779314;177;919433;-57
2024/03/05 01:22:21;;;;;;;66.47;32.93;;;;;;;;;;783793;177;762104;-58
2024/03/05 01:24:47;;;;;;;64.27;31.10;;;;;;;;;;782210;177;920030;-57
2024/03/05 01:27:12;;;;;;;73.87;32.57;;;;;;;;;;780091;177;921224;-59
2024/03/05 01:29:41;;;;;;;72.20;34.30;;;;;;;;;;785769;176;919536;-59
2024/03/05 01:32:04;;;;;;;73.23;34.73;;;;;;;;;;780444;176;919586;-62
2024/03/05 01:34:32;;;;;;;68.17;34.20;;;;;;;;;;780871;177;917793;-59
2024/03/05 01:36:57;;;;;;;76.43;32.17;;;;;;;;;;788715;177;858441;-57
2024/03/05 01:39:25;;;;;;;69.70;31.60;;;;;;;;;;779407;177;923003;-60
2024/03/05 01:41:52;;;;;;;76.97;32.20;;;;;;;;;;776387;179;920451;-59
2024/03/05 01:44:17;;;;;;;61.72;29.20;;;;;;;;;;778597;177;872469;-58
2024/03/05 01:46:42;;;;;;;71.20;32.23;;;;;;;;;;781240;177;930795;-58
2024/03/05 01:49:08;;;;;;;66.23;32.93;;;;;;;;;;781284;177;919097;-58
2024/03/05 01:51:34;;;;;;;76.00;35.28;;;;;;;;;;781126;176;919381;-59
2024/03/05 01:53:59;;;;;;;80.60;33.80;;;;;;;;;;779529;176;816340;-57
2024/03/05 01:56:25;;;;;;;75.80;34.37;;;;;;;;;;774536;177;917845;-59
2024/03/05 01:58:51;;;;;;;74.18;37.05;;;;;;;;;;781141;177;940749;-59
2024/03/05 02:01:17;;;;;;;86.50;38.23;;;;;;;;;;782095;179;914855;-59
2024/03/05 02:03:43;;;;;;;69.83;35.30;;;;;;;;;;778231;177;891624;-57
2024/03/05 02:06:10;;;;;;;73.82;36.15;;;;;;;;;;780458;177;905798;-57
2024/03/05 02:08:35;;;;;;;71.17;31.77;;;;;;;;;;776514;177;918584;-58
2024/03/05 02:11:00;;;;;;;80.37;34.50;;;;;;;;;;780907;177;850382;-58
2024/03/05 02:13:26;;;;;;;82.77;38.03;;;;;;;;;;776610;176;861148;-59
2024/03/05 02:15:52;;;;;;;71.43;35.57;;;;;;;;;;782147;177;817947;-57
2024/03/05 02:18:18;;;;;;;71.00;33.90;;;;;;;;;;786612;178;844198;-58
2024/03/05 02:20:44;;;;;;;72.90;35.60;;;;;;;;;;778359;177;919903;-59
2024/03/05 02:23:10;;;;;;;74.07;34.47;;;;;;;;;;783486;177;919975;-57
2024/03/05 02:25:35;;;;;;;76.47;36.27;;;;;;;;;;780439;177;922275;-58
2024/03/05 02:28:01;;;;;;;69.37;33.03;;;;;;;;;;777827;177;964203;-57
2024/03/05 02:30:29;;;;;;;77.27;32.87;;;;;;;;;;776936;176;919165;-57
2024/03/05 02:32:53;;;;;;;70.43;34.70;;;;;;;;;;775062;178;920526;-57
2024/03/05 02:35:19;;;;;;;77.00;33.03;;;;;;;;;;775408;179;844971;-57
2024/03/05 02:37:45;;;;;;;71.87;32.05;;;;;;;;;;784113;176;917102;-59
2024/03/05 02:40:13;;;;;;;60.20;32.07;;;;;;;;;;780579;177;817112;-59
2024/03/05 02:42:36;;;;;;;68.60;30.97;;;;;;;;;;776831;177;918666;-57
2024/03/05 02:45:05;;;;;;;44.17;20.42;;;;;;;;;;781057;177;919466;-58
2024/03/05 02:47:32;;;;;;;61.63;29.27;;;;;;;;;;775334;177;919931;-58
2024/03/05 02:49:58;;;;;;;65.63;28.80;;;;;;;;;;784306;177;817534;-59
2024/03/05 02:52:23;;;;;;;44.93;20.27;;;;;;;;;;773240;179;919783;-58
2024/03/05 02:54:49;;;;;;;44.17;21.90;;;;;;;;;;783348;177;820068;-58
2024/03/05 02:57:15;;;;;;;68.77;31.50;;;;;;;;;;779671;177;919593;-57
2024/03/05 02:59:41;;;;;;;64.70;26.60;;;;;;;;;;782870;177;911157;-57
2024/03/05 03:02:07;;;;;;;58.83;27.33;;;;;;;;;;783442;177;816808;-58
2024/03/05 03:04:33;;;;;;;53.13;21.50;;;;;;;;;;779791;178;857037;-58
2024/03/05 03:06:58;;;;;;;62.90;28.40;;;;;;;;;;785075;177;919101;-59
2024/03/05 03:09:24;;;;;;;59.93;28.87;;;;;;;;;;783544;177;817540;-59
2024/03/05 03:11:50;;;;;;;65.80;32.13;;;;;;;;;;784522;177;816668;-57
2024/03/05 03:14:16;;;;;;;57.28;28.75;;;;;;;;;;786669;177;872374;-57
2024/03/05 03:16:43;;;;;;;61.03;30.80;;;;;;;;;;782522;177;919326;-57
2024/03/05 03:19:08;;;;;;;56.63;26.00;;;;;;;;;;781551;177;914647;-57
2024/03/05 03:21:34;;;;;;;48.77;23.63;;;;;;;;;;778514;177;915972;-58
2024/03/05 03:23:59;;;;;;;57.20;24.40;;;;;;;;;;778190;179;920166;-59
2024/03/05 03:26:26;;;;;;;57.73;24.07;;;;;;;;;;784196;176;917968;-57
2024/03/05 03:28:52;;;;;;;57.90;26.33;;;;;;;;;;780727;178;918485;-58
2024/03/05 03:31:17;;;;;;;46.10;25.83;;;;;;;;;;786791;177;917726;-59
2024/03/05 03:33:43;;;;;;;58.93;26.43;;;;;;;;;;778786;177;919757;-57
2024/03/05 03:36:09;;;;;;;56.63;23.77;;;;;;;;;;782531;176;919644;-59
2024/03/05 03:38:35;;;;;;;53.53;23.80;;;;;;;;;;784692;177;920239;-58
2024/03/05 03:41:00;;;;;;;52.87;23.53;;;;;;;;;;776934;177;939631;-58
2024/03/05 03:43:26;;;;;;;41.40;21.60;;;;;;;;;;781354;178;916360;-57
2024/03/05 03:45:52;;;;;;;43.03;20.97;;;;;;;;;;781827;177;912105;-59
2024/03/05 03:48:18;;;;;;;46.23;20.20;;;;;;;;;;784520;179;622539;-57
2024/03/05 03:50:44;;;;;;;40.90;20.37;;;;;;;;;;784534;178;622693;-58
2024/03/05 03:53:10;;;;;;;38.73;20.07;;;;;;;;;;780567;175;922878;-59
2024/03/05 03:55:36;;;;;;;44.17;20.03;;;;;;;;;;789093;176;713587;-57
2024/03/05 03:58:02;;;;;;;32.10;21.37;;;;;;;;;;787815;176;618426;-57
2024/03/05 04:00:28;;;;;;;41.80;19.27;;;;;;;;;;784338;177;922882;-59
2024/03/05 04:02:53;;;;;;;40.40;19.20;;;;;;;;;;780523;177;958036;-59
2024/03/05 04:05:19;;;;;;;32.90;18.17;;;;;;;;;;779443;177;917529;-57
2024/03/05 04:07:45;;;;;;;33.13;16.70;;;;;;;;;;781413;175;922220;-58
2024/03/05 04:10:11;;;;;;;46.45;20.83;;;;;;;;;;778205;177;915610;-58
2024/03/05 04:12:36;;;;;;;36.87;19.40;;;;;;;;;;771677;180;877737;-57
2024/03/05 04:15:03;;;;;;;34.40;18.03;;;;;;;;;;783547;175;821005;-58
2024/03/05 04:17:28;;;;;;;26.20;12.73;;;;;;;;;;783171;177;919379;-57
2024/03/05 04:19:55;;;;;;;41.70;20.80;;;;;;;;;;787021;177;912216;-58
2024/03/05 04:22:20;;;;;;;46.93;21.20;;;;;;;;;;780378;177;914585;-58
2024/03/05 04:24:52;;;;;;;37.80;20.23;;;;;;;;;;780110;177;920606;-59
2024/03/05 04:27:13;;;;;;;31.63;20.60;;;;;;;;;;778972;177;915752;-58
2024/03/05 04:29:41;;;;;;;37.57;21.13;;;;;;;;;;776368;175;921868;-57
2024/03/05 04:32:05;;;;;;;30.93;19.90;;;;;;;;;;779449;177;920789;-59
2024/03/05 04:34:31;;;;;;;31.70;18.33;;;;;;;;;;783779;177;919139;-58
2024/03/05 04:36:57;;;;;;;33.33;17.73;;;;;;;;;;773147;179;824796;-57
2024/03/05 04:39:22;;;;;;;34.13;18.20;;;;;;;;;;783410;177;921115;-57
2024/03/05 04:41:48;;;;;;;33.23;19.20;;;;;;;;;;780511;177;919959;-59
2024/03/05 04:44:14;;;;;;;46.95;19.27;;;;;;;;;;784810;177;816317;-59
2024/03/05 04:46:40;;;;;;;33.60;18.67;;;;;;;;;;777336;177;919199;-59
2024/03/05 04:49:06;;;;;;;34.43;17.57;;;;;;;;;;778097;177;920714;-59
2024/03/05 04:51:32;;;;;;;32.10;19.13;;;;;;;;;;782295;177;919060;-59
2024/03/05 04:53:58;;;;;;;37.17;20.00;;;;;;;;;;775151;177;859806;-58
2024/03/05 04:56:23;;;;;;;33.70;18.60;;;;;;;;;;782354;175;915825;-59
2024/03/05 04:58:49;;;;;;;35.37;18.30;;;;;;;;;;781401;177;919655;-58
2024/03/05 05:01:15;;;;;;;38.10;20.40;;;;;;;;;;780512;177;916077;-59
2024/03/05 05:03:42;;;;;;;36.50;18.47;;;;;;;;;;777766;176;834257;-59
2024/03/05 05:06:07;;;;;;;31.03;17.73;;;;;;;;;;775747;177;919557;-59
2024/03/05 05:08:33;;;;;;;34.73;19.57;;;;;;;;;;783464;177;919384;-60
2024/03/05 05:10:58;;;;;;;33.00;18.17;;;;;;;;;;779388;177;912490;-58
2024/03/05 05:13:24;;;;;;;35.67;19.77;;;;;;;;;;777478;176;912678;-59
2024/03/05 05:15:50;;;;;;;35.83;17.93;;;;;;;;;;785384;177;820337;-59
2024/03/05 05:18:16;;;;;;;30.80;18.52;;;;;;;;;;782241;177;828470;-59
2024/03/05 05:20:43;;;;;;;44.80;19.97;;;;;;;;;;774909;176;919156;-58
2024/03/05 05:23:08;;;;;;;36.87;19.30;;;;;;;;;;786103;176;919053;-59
2024/03/05 05:25:34;;;;;;;32.90;17.10;;;;;;;;;;777395;177;912454;-57
2024/03/05 05:28:00;;;;;;;43.53;20.53;;;;;;;;;;774052;177;913610;-58
2024/03/05 05:30:26;;;;;;;31.27;13.70;;;;;;;;;;779177;178;921825;-58
2024/03/05 05:32:51;;;;;;;37.53;20.87;;;;;;;;;;788205;175;917054;-57
2024/03/05 05:35:17;;;;;;;34.70;18.60;;;;;;;;;;780223;177;919205;-58
2024/03/05 05:37:44;;;;;;;34.80;18.10;;;;;;;;;;784213;176;819161;-57
2024/03/05 05:40:10;;;;;;;29.47;14.50;;;;;;;;;;781826;177;625664;-58
2024/03/05 05:42:35;;;;;;;34.77;20.90;;;;;;;;;;782283;177;933907;-59
2024/03/05 05:45:06;;;;;;;40.17;22.00;;;;;;;;;;778304;176;896316;-59
2024/03/05 05:47:27;;;;;;;28.20;14.97;;;;;;;;;;785243;176;870495;-59
2024/03/05 05:49:52;;;;;;;27.50;18.02;;;;;;;;;;783308;176;920495;-59
2024/03/05 05:52:21;;;;;;;31.70;15.63;;;;;;;;;;782436;178;817759;-57
2024/03/05 05:54:44;;;;;;;34.33;20.23;;;;;;;;;;782935;176;629172;-59
2024/03/05 05:57:10;;;;;;;38.23;19.83;;;;;;;;;;775409;178;758980;-58
2024/03/05 05:59:37;;;;;;;34.33;18.77;;;;;;;;;;781842;177;920402;-59
2024/03/05 06:02:04;;;;;;;29.00;17.75;;;;;;;;;;781573;177;915505;-59
2024/03/05 06:04:30;;;;;;;35.73;22.20;;;;;;;;;;789552;177;796773;-58
2024/03/05 06:06:57;;;;;;;36.70;19.93;;;;;;;;;;777537;177;908901;-58
2024/03/05 06:09:28;;;;;;;33.03;18.00;;;;;;;;;;779850;177;917379;-59
2024/03/05 06:11:54;;;;;;;32.63;18.60;;;;;;;;;;775785;178;921405;-58
2024/03/05 06:14:20;;;;;;;36.33;19.20;;;;;;;;;;778384;179;918188;-59
2024/03/05 06:16:46;;;;;;;35.80;17.20;;;;;;;;;;782431;176;914261;-58
2024/03/05 06:19:12;;;;;;;29.67;15.83;;;;;;;;;;778553;177;837976;-59
2024/03/05 06:21:37;;;;;;;30.67;18.23;;;;;;;;;;779296;177;920217;-59
2024/03/05 06:24:03;;;;;;;34.97;19.53;;;;;;;;;;778736;177;925128;-58
2024/03/05 06:26:29;;;;;;;34.70;18.80;;;;;;;;;;777601;177;817038;-58
2024/03/05 06:28:57;;;;;;;32.33;17.77;;;;;;;;;;784580;175;920415;-59
2024/03/05 06:31:21;;;;;;;33.10;16.37;;;;;;;;;;778841;177;920393;-58
2024/03/05 06:33:47;;;;;;;20.67;11.03;;;;;;;;;;776158;177;914927;-58
2024/03/05 06:36:13;;;;;;;27.53;16.10;;;;;;;;;;778659;177;815652;-58
2024/03/05 06:38:39;;;;;;;35.83;17.83;;;;;;;;;;773820;176;918026;-57
2024/03/05 06:41:04;;;;;;;26.90;14.90;;;;;;;;;;782650;176;918547;-59
2024/03/05 06:43:36;;;;;;;29.83;15.73;;;;;;;;;;778731;179;1019652;-59
2024/03/05 06:45:59;;;;;;;24.33;11.93;;;;;;;;;;780415;177;852309;-58
2024/03/05 06:48:26;;;;;;;31.83;19.00;;;;;;;;;;780560;177;817101;-59
2024/03/05 06:50:57;;;;;;;30.53;17.30;;;;;;;;;;779955;177;904909;-58
2024/03/05 06:58:20;;;;;;;29.12;17.52;;;;;;;;;;777509;176;919575;-58
2024/03/05 07:00:46;;;;;;;29.47;17.23;;;;;;;;;;777834;176;904501;-59
2024/03/05 07:03:13;;;;;;;33.73;17.33;;;;;;;;;;786606;175;919806;-57
2024/03/05 07:05:39;;;;;;;37.87;21.40;;;;;;;;;;779964;177;942085;-57
2024/03/05 07:08:07;;;;;;;22.93;10.70;;;;;;;;;;782972;176;919025;-58
2024/03/05 07:10:31;;;;;;;33.20;17.73;;;;;;;;;;780091;177;919254;-59
2024/03/05 07:12:57;;;;;;;38.40;20.53;;;;;;;;;;785733;177;895224;-63
2024/03/05 07:15:23;;;;;;;32.67;19.80;;;;;;;;;;784367;177;921858;-58
2024/03/05 07:17:48;;;;;;;37.13;19.37;;;;;;;;;;779537;177;919906;-58
2024/03/05 07:20:18;;;;;;;26.90;14.03;;;;;;;;;;784083;177;918025;-58
2024/03/05 07:22:44;;;;;;;39.97;20.90;;;;;;;;;;776834;177;819449;-58
2024/03/05 07:25:10;;;;;;;34.50;17.03;;;;;;;;;;774232;177;917842;-59
2024/03/05 07:27:35;;;;;;;40.97;22.30;;;;;;;;;;778408;177;919147;-57
2024/03/05 07:30:01;;;;;;;41.37;20.43;;;;;;;;;;780509;179;817836;-59
2024/03/05 07:32:27;;;;;;;45.10;21.73;;;;;;;;;;776836;177;921941;-57
2024/03/05 07:34:53;;;;;;;38.40;20.43;;;;;;;;;;781917;177;915385;-57
2024/03/05 07:37:20;;;;;;;39.27;19.97;;;;;;;;;;779090;179;919354;-57
2024/03/05 07:39:45;;;;;;;42.63;20.30;;;;;;;;;;781786;177;886776;-58
2024/03/05 07:42:11;;;;;;;25.03;14.10;;;;;;;;;;775763;177;906510;-59
2024/03/05 07:44:36;;;;;;;42.33;22.60;;;;;;;;;;781098;177;815102;-59
2024/03/05 07:47:02;;;;;;;40.83;22.53;;;;;;;;;;779439;177;918273;-59
2024/03/05 07:49:28;;;;;;;46.73;21.40;;;;;;;;;;778660;177;920979;-59
2024/03/05 07:51:54;;;;;;;45.40;22.60;;;;;;;;;;777140;177;918902;-59
2024/03/05 07:54:20;;;;;;;58.13;21.93;;;;;;;;;;779502;179;881560;-58
2024/03/05 07:56:46;;;;;;;48.73;24.67;;;;;;;;;;769895;177;916614;-58
2024/03/05 07:59:11;;;;;;;39.23;20.27;;;;;;;;;;781316;177;815895;-59
2024/03/05 08:01:37;;;;;;;46.97;23.27;;;;;;;;;;787693;175;919502;-58
2024/03/05 08:04:04;;;;;;;37.87;20.40;;;;;;;;;;780890;176;817556;-58
2024/03/05 08:06:30;;;;;;;42.67;20.90;;;;;;;;;;781153;177;813627;-58
2024/03/05 08:08:55;;;;;;;40.53;21.85;;;;;;;;;;779824;179;911015;-59
2024/03/05 08:11:21;;;;;;;42.83;19.90;;;;;;;;;;773192;177;925026;-58
2024/03/05 08:13:47;;;;;;;45.03;24.30;;;;;;;;;;777804;176;918907;-57
2024/03/05 08:16:12;;;;;;;40.77;22.60;;;;;;;;;;784907;177;919757;-57
2024/03/05 08:18:39;;;;;;;44.00;21.70;;;;;;;;;;780494;176;921064;-57
2024/03/05 08:21:04;;;;;;;32.23;18.37;;;;;;;;;;778889;177;920404;-59
2024/03/05 08:23:30;;;;;;;49.20;24.37;;;;;;;;;;778271;178;1171733;-58
2024/03/05 08:25:56;;;;;;;47.10;24.90;;;;;;;;;;788773;176;817109;-57
2024/03/05 08:28:22;;;;;;;37.90;20.60;;;;;;;;;;784592;177;818476;-58
2024/03/05 08:30:48;;;;;;;43.00;22.60;;;;;;;;;;783396;177;818319;-57
2024/03/05 08:33:19;;;;;;;32.50;16.00;;;;;;;;;;782792;177;912539;-60
2024/03/05 08:35:40;;;;;;;37.03;19.67;;;;;;;;;;777411;177;816228;-58
2024/03/05 08:38:05;;;;;;;28.05;13.85;;;;;;;;;;777218;177;917360;-58
2024/03/05 08:40:32;;;;;;;34.07;19.10;;;;;;;;;;783955;176;813825;-59
2024/03/05 08:42:58;;;;;;;32.77;18.80;;;;;;;;;;779968;177;919135;-59
2024/03/05 08:45:23;;;;;;;38.87;21.27;;;;;;;;;;781020;177;669145;-59
2024/03/05 08:47:50;;;;;;;35.27;17.30;;;;;;;;;;781289;177;643079;-59
2024/03/05 08:50:15;;;;;;;28.77;14.97;;;;;;;;;;787398;177;622975;-57
2024/03/05 08:52:41;;;;;;;39.40;20.60;;;;;;;;;;786359;176;621818;-57
2024/03/05 08:55:08;;;;;;;33.00;17.30;;;;;;;;;;780428;177;814804;-58
2024/03/05 08:57:36;;;;;;;41.87;21.10;;;;;;;;;;784715;177;647549;-58
2024/03/05 09:00:02;;;;;;;38.23;18.60;;;;;;;;;;774654;177;917573;-58
2024/03/05 09:02:27;;;;;;;31.33;17.40;;;;;;;;;;773222;179;816638;-57
2024/03/05 09:04:53;;;;;;;71.57;38.37;;;;;;;;;;780103;176;997746;-58
2024/03/05 09:07:20;;;;;;;72.80;37.93;;;;;;;;;;783348;177;870274;-59
2024/03/05 09:09:44;;;;;;;75.10;41.07;;;;;;;;;;779129;176;917733;-60
2024/03/05 09:12:13;;;;;;;41.83;23.90;;;;;;;;;;777368;176;915775;-58
2024/03/05 09:14:36;;;;;;;46.33;26.97;;;;;;;;;;781607;177;918943;-59
2024/03/05 09:17:02;;;;;;;40.90;21.07;;;;;;;;;;779063;177;919142;-58
2024/03/05 09:19:28;;;;;;;35.80;21.50;;;;;;;;;;781352;177;884248;-58
2024/03/05 09:21:54;;;;;;;34.00;18.90;;;;;;;;;;783394;176;714873;-59
2024/03/05 09:24:19;;;;;;;33.17;18.77;;;;;;;;;;783201;176;925023;-58
2024/03/05 09:26:47;;;;;;;32.40;18.73;;;;;;;;;;778440;178;817267;-57
2024/03/05 09:29:13;;;;;;;60.33;31.80;;;;;;;;;;788352;177;816814;-59
2024/03/05 09:31:37;;;;;;;43.30;25.02;;;;;;;;;;782674;177;913377;-57
2024/03/05 09:34:03;;;;;;;37.47;20.97;;;;;;;;;;779205;177;918573;-58
2024/03/05 09:36:29;;;;;;;32.10;18.07;;;;;;;;;;778951;177;881901;-59
2024/03/05 09:38:54;;;;;;;31.77;18.50;;;;;;;;;;780146;178;814512;-58
2024/03/05 09:41:20;;;;;;;37.67;18.20;;;;;;;;;;771472;177;857059;-59
2024/03/05 09:43:47;;;;;;;47.33;23.27;;;;;;;;;;782357;176;915759;-57
2024/03/05 09:46:12;;;;;;;28.80;14.40;;;;;;;;;;782487;177;925844;-59
2024/03/05 09:48:38;;;;;;;36.50;22.20;;;;;;;;;;779219;177;913758;-57
2024/03/05 09:51:04;;;;;;;33.30;20.10;;;;;;;;;;777959;177;918412;-57
2024/03/05 09:53:30;;;;;;;41.73;21.57;;;;;;;;;;784528;177;819611;-59
2024/03/05 09:55:56;;;;;;;44.47;27.10;;;;;;;;;;778023;177;923264;-57
2024/03/05 09:58:22;;;;;;;38.00;16.90;;;;;;;;;;780244;177;819875;-58
2024/03/05 10:00:48;;;;;;;34.40;19.60;;;;;;;;;;773562;176;1023584;-57
2024/03/05 10:03:13;;;;;;;42.53;20.15;;;;;;;;;;771980;180;915522;-57
2024/03/05 10:05:40;;;;;;;42.07;23.37;;;;;;;;;;776963;177;1020317;-58
2024/03/05 10:08:05;;;;;;;27.97;18.37;;;;;;;;;;782647;176;753520;-59
2024/03/05 10:10:32;;;;;;;43.53;21.17;;;;;;;;;;788753;176;736672;-58
2024/03/05 10:12:57;;;;;;;31.60;15.90;;;;;;;;;;779979;176;920838;-57
2024/03/05 10:15:24;;;;;;;31.50;17.67;;;;;;;;;;782297;177;919031;-59
2024/03/05 10:17:50;;;;;;;35.67;19.17;;;;;;;;;;786988;177;713492;-57
2024/03/05 10:20:21;;;;;;;32.07;16.53;;;;;;;;;;776348;178;820604;-57
2024/03/05 10:22:50;;;;;;;46.23;25.87;;;;;;;;;;772034;177;1022986;-58
2024/03/05 10:25:16;;;;;;;36.60;21.27;;;;;;;;;;776039;177;921134;-57
2024/03/05 10:27:42;;;;;;;35.17;19.83;;;;;;;;;;784709;177;816372;-57
2024/03/05 10:30:08;;;;;;;32.37;17.23;;;;;;;;;;782509;176;918852;-58
2024/03/05 10:32:34;;;;;;;27.20;16.73;;;;;;;;;;780217;176;916069;-57
2024/03/05 10:35:00;;;;;;;30.80;17.50;;;;;;;;;;787647;176;818045;-57
2024/03/05 10:37:28;;;;;;;22.27;13.40;;;;;;;;;;781970;176;1023339;-57
2024/03/05 10:39:52;;;;;;;31.37;17.60;;;;;;;;;;781895;177;814846;-59
2024/03/05 10:42:17;;;;;;;40.80;21.50;;;;;;;;;;777126;175;920507;-57
2024/03/05 10:44:43;;;;;;;27.20;16.30;;;;;;;;;;782853;177;856276;-57
2024/03/05 10:47:09;;;;;;;29.73;17.60;;;;;;;;;;782537;176;918816;-58
2024/03/05 10:49:35;;;;;;;33.07;18.90;;;;;;;;;;776919;177;920481;-59
2024/03/05 10:52:01;;;;;;;33.22;19.35;;;;;;;;;;782158;177;816240;-58
2024/03/05 10:54:27;;;;;;;34.10;19.00;;;;;;;;;;781138;177;818511;-58
2024/03/05 10:56:53;;;;;;;33.85;20.10;;;;;;;;;;778212;177;920870;-57
2024/03/05 11:01:50;;;;;;;26.70;16.60;;;;;;;;;;781758;178;877201;-59
2024/03/05 11:04:21;;;;;;;27.73;16.87;;;;;;;;;;779480;177;918867;-59
2024/03/05 11:06:47;;;;;;;22.13;14.77;;;;;;;;;;776939;177;919253;-57
2024/03/05 11:09:15;;;;;;;35.40;20.47;;;;;;;;;;784493;177;919352;-57
2024/03/05 11:11:38;;;;;;;26.60;14.43;;;;;;;;;;782275;176;626180;-59
2024/03/05 11:14:04;;;;;;;23.37;13.37;;;;;;;;;;779344;177;636443;-57
2024/03/05 11:16:34;;;;;;;23.43;15.13;;;;;;;;;;780846;176;918990;-58
2024/03/05 11:19:01;;;;;;;33.30;16.43;;;;;;;;;;777971;178;699173;-59
2024/03/05 11:21:25;;;;;;;26.07;14.00;;;;;;;;;;780939;177;849996;-59
2024/03/05 11:23:54;;;;;;;37.97;24.20;;;;;;;;;;780222;177;657803;-58
2024/03/05 11:26:20;;;;;;;33.07;18.37;;;;;;;;;;782744;177;816804;-58
2024/03/05 11:28:45;;;;;;;24.57;14.37;;;;;;;;;;781260;177;853312;-58
2024/03/05 11:31:11;;;;;;;36.73;19.50;;;;;;;;;;782023;176;632636;-57
2024/03/05 11:33:40;;;;;;;23.63;16.77;;;;;;;;;;780553;177;624567;-58
2024/03/05 11:36:04;;;;;;;19.67;11.33;;;;;;;;;;780844;179;624064;-59
2024/03/05 11:38:30;;;;;;;29.03;18.13;;;;;;;;;;783083;176;625063;-59
2024/03/05 11:40:56;;;;;;;27.23;15.73;;;;;;;;;;778883;176;913695;-58
2024/03/05 11:43:27;;;;;;;24.93;11.80;;;;;;;;;;786038;177;816320;-59
2024/03/05 11:45:53;;;;;;;28.27;17.20;;;;;;;;;;782128;176;818111;-60
2024/03/05 11:48:19;;;;;;;24.33;14.93;;;;;;;;;;780561;176;919119;-59
2024/03/05 11:50:46;;;;;;;28.37;14.00;;;;;;;;;;781502;177;800522;-58
2024/03/05 11:53:11;;;;;;;32.10;21.33;;;;;;;;;;781581;178;752507;-58
2024/03/05 11:55:37;;;;;;;25.83;16.73;;;;;;;;;;774830;177;903496;-59
2024/03/05 11:58:03;;;;;;;32.72;18.37;;;;;;;;;;778021;177;914612;-58
2024/03/05 12:00:29;;;;;;;27.33;16.40;;;;;;;;;;786400;177;714020;-57
2024/03/05 12:02:56;;;;;;;26.00;15.60;;;;;;;;;;779733;177;915879;-58
2024/03/05 12:05:21;;;;;;;32.90;17.30;;;;;;;;;;776833;177;921279;-59
2024/03/05 12:07:53;;;;;;;29.17;20.00;;;;;;;;;;780526;176;818522;-59
2024/03/05 12:10:19;;;;;;;27.63;18.70;;;;;;;;;;778074;179;845988;-57
2024/03/05 12:12:45;;;;;;;28.93;17.90;;;;;;;;;;777332;177;920197;-57
2024/03/05 12:15:11;;;;;;;26.37;14.70;;;;;;;;;;782663;176;764798;-59
2024/03/05 12:17:37;;;;;;;19.23;13.62;;;;;;;;;;786932;177;820211;-58
2024/03/05 12:20:10;;;;;;;21.03;14.67;;;;;;;;;;781687;176;919560;-59
2024/03/05 12:22:37;;;;;;;22.30;12.87;;;;;;;;;;783125;176;908971;-59
2024/03/05 12:25:02;;;;;;;25.87;16.20;;;;;;;;;;779349;176;820027;-59
2024/03/05 12:27:28;;;;;;;20.70;12.57;;;;;;;;;;788565;177;629223;-58
2024/03/05 12:29:54;;;;;;;26.87;18.13;;;;;;;;;;780443;177;917506;-57
2024/03/05 12:32:20;;;;;;;16.30;10.90;;;;;;;;;;784556;177;636908;-59
2024/03/05 12:34:47;;;;;;;23.20;13.80;;;;;;;;;;785131;177;656351;-58
2024/03/05 12:37:12;;;;;;;23.17;13.80;;;;;;;;;;778758;177;641299;-57
2024/03/05 12:39:39;;;;;;;22.63;13.30;;;;;;;;;;782423;177;623134;-58
2024/03/05 12:42:05;;;;;;;24.00;13.20;;;;;;;;;;786702;177;816165;-57
2024/03/05 12:44:31;;;;;;;29.43;17.10;;;;;;;;;;779432;177;841795;-58
2024/03/05 12:47:02;;;;;;;21.40;13.43;;;;;;;;;;777539;177;1073069;-57
2024/03/05 12:49:29;;;;;;;21.53;12.50;;;;;;;;;;782252;177;620182;-57
2024/03/05 12:51:54;;;;;;;22.10;14.23;;;;;;;;;;785084;179;627762;-57
2024/03/05 12:54:20;;;;;;;20.40;11.40;;;;;;;;;;782836;175;940850;-58
2024/03/05 12:56:46;;;;;;;23.30;11.63;;;;;;;;;;782443;176;915475;-59
2024/03/05 12:59:17;;;;;;;19.13;12.80;;;;;;;;;;781748;176;919572;-57
2024/03/05 13:01:42;;;;;;;24.97;13.73;;;;;;;;;;776635;178;921048;-58
2024/03/05 13:04:08;;;;;;;22.93;12.70;;;;;;;;;;781048;177;921255;-57
2024/03/05 13:06:34;;;;;;;22.13;14.97;;;;;;;;;;783544;176;818871;-58
2024/03/05 13:09:00;;;;;;;17.92;12.63;;;;;;;;;;784052;178;919169;-58
2024/03/05 13:11:25;;;;;;;27.47;13.50;;;;;;;;;;779998;177;935111;-57
2024/03/05 13:13:51;;;;;;;24.63;13.80;;;;;;;;;;778531;177;816885;-57
2024/03/05 13:16:18;;;;;;;19.27;14.40;;;;;;;;;;785862;177;909931;-59
2024/03/05 13:18:43;;;;;;;21.20;11.90;;;;;;;;;;776981;177;930282;-57
2024/03/05 13:21:09;;;;;;;22.70;13.37;;;;;;;;;;782189;177;921292;-57
2024/03/05 13:23:35;;;;;;;18.80;10.93;;;;;;;;;;781192;178;842887;-58
2024/03/05 13:26:01;;;;;;;21.60;13.90;;;;;;;;;;782049;177;803470;-59
2024/03/05 13:28:26;;;;;;;26.50;14.57;;;;;;;;;;778598;178;870714;-59
2024/03/05 13:30:52;;;;;;;19.67;14.30;;;;;;;;;;776965;177;919400;-57
2024/03/05 13:33:23;;;;;;;23.67;14.80;;;;;;;;;;787619;176;916397;-57
2024/03/05 13:35:45;;;;;;;24.30;13.60;;;;;;;;;;780037;177;934704;-58
2024/03/05 13:38:10;;;;;;;30.87;18.70;;;;;;;;;;773189;176;846655;-58
2024/03/05 13:40:36;;;;;;;32.33;20.53;;;;;;;;;;780344;178;913323;-57
2024/03/05 13:43:01;;;;;;;24.63;16.40;;;;;;;;;;781421;177;916111;-57
2024/03/05 13:45:27;;;;;;;24.70;15.33;;;;;;;;;;774222;177;839782;-58
2024/03/05 13:47:54;;;;;;;28.13;17.53;;;;;;;;;;784384;177;921165;-56
2024/03/05 13:50:19;;;;;;;28.83;17.43;;;;;;;;;;785172;176;918947;-58
2024/03/05 13:52:45;;;;;;;27.70;17.57;;;;;;;;;;778935;177;847981;-57
2024/03/05 13:55:11;;;;;;;35.63;20.07;;;;;;;;;;776802;177;920705;-56
2024/03/05 13:57:36;;;;;;;28.23;17.50;;;;;;;;;;788133;177;816556;-58
2024/03/05 14:00:03;;;;;;;25.50;15.77;;;;;;;;;;781332;177;917852;-58
2024/03/05 14:02:28;;;;;;;29.50;17.73;;;;;;;;;;772532;179;927873;-58
2024/03/05 14:04:54;;;;;;;34.33;18.27;;;;;;;;;;786612;177;918103;-58